createdAt,value
2022-09-12T00:00:11.985Z,58.04
2022-09-12T00:02:38.546Z,58.10
2022-09-12T00:05:07.539Z,58.05
2022-09-12T00:07:34.329Z,57.77
2022-09-12T00:10:01.035Z,57.85
2022-09-12T00:12:28.044Z,59.48
2022-09-12T00:14:54.750Z,58.75
2022-09-12T00:17:21.574Z,58.35
2022-09-12T00:19:48.550Z,57.79
2022-09-12T00:22:15.267Z,57.46
2022-09-12T00:24:41.923Z,58.26
2022-09-12T00:27:08.886Z,58.23
2022-09-12T00:29:35.603Z,58.26
2022-09-12T00:32:02.423Z,58.16
2022-09-12T00:34:29.398Z,58.42
2022-09-12T00:36:56.194Z,57.68
2022-09-12T00:39:22.868Z,58.32
2022-09-12T00:41:50.080Z,57.42
2022-09-12T00:44:16.769Z,57.54
2022-09-12T00:46:43.425Z,57.42
2022-09-12T00:49:11.353Z,58.21
2022-09-12T00:51:38.090Z,57.27
2022-09-12T00:54:06.735Z,60.27
2022-09-12T00:56:33.707Z,58.99
2022-09-12T00:59:05.725Z,59.73
2022-09-12T01:01:32.958Z,59.21
2022-09-12T01:04:00.410Z,58.13
2022-09-12T01:06:28.211Z,59.12
2022-09-12T01:08:55.210Z,58.80
2022-09-12T01:11:22.248Z,58.95
2022-09-12T01:13:48.957Z,59.13
2022-09-12T01:16:15.752Z,59.90
2022-09-12T01:18:49.103Z,60.16
2022-09-12T01:21:18.436Z,59.79
2022-09-12T01:23:51.510Z,59.82
2022-09-12T01:26:36.719Z,59.85
2022-09-12T01:29:09.800Z,60.01
2022-09-12T01:31:41.625Z,60.04
2022-09-12T01:34:27.029Z,59.79
2022-09-12T01:37:05.811Z,60.39
2022-09-12T01:39:39.095Z,61.01
2022-09-12T01:42:18.153Z,61.17
2022-09-12T01:44:50.824Z,60.75
2022-09-12T01:47:19.988Z,61.28
2022-09-12T01:49:50.036Z,60.55
2022-09-12T01:52:16.724Z,61.08
2022-09-12T01:54:45.469Z,60.78
2022-09-12T01:57:18.430Z,60.64
2022-09-12T01:59:46.024Z,61.18
2022-09-12T02:02:15.293Z,61.75
2022-09-12T02:05:02.651Z,61.74
2022-09-12T02:07:48.862Z,60.81
2022-09-12T02:10:20.372Z,62.73
2022-09-12T02:12:51.948Z,61.35
2022-09-12T02:15:19.207Z,62.62
2022-09-12T02:17:47.011Z,61.67
2022-09-12T02:20:37.461Z,62.12
2022-09-12T02:23:09.906Z,62.18
2022-09-12T02:25:38.087Z,62.75
2022-09-12T02:28:07.126Z,62.18
2022-09-12T02:30:39.677Z,62.41
2022-09-12T02:33:07.207Z,63.11
2022-09-12T02:36:00.481Z,62.08
2022-09-12T02:38:44.584Z,62.54
2022-09-12T02:41:12.481Z,61.58
2022-09-12T02:43:39.239Z,60.85
2022-09-12T02:46:06.807Z,61.29
2022-09-12T02:48:34.649Z,60.32
2022-09-12T02:51:01.857Z,60.48
2022-09-12T02:53:28.915Z,60.15
2022-09-12T02:55:56.188Z,60.17
2022-09-12T02:58:23.687Z,60.41
2022-09-12T03:00:52.150Z,60.39
2022-09-12T03:03:22.045Z,60.15
2022-09-12T03:05:54.501Z,60.25
2022-09-12T03:08:29.239Z,60.39
2022-09-12T03:11:03.359Z,60.98
2022-09-12T03:13:36.591Z,60.41
2022-09-12T03:16:15.131Z,61.06
2022-09-12T03:19:02.918Z,59.94
2022-09-12T03:21:35.755Z,59.82
2022-09-12T03:24:13.390Z,60.46
2022-09-12T03:26:40.059Z,59.67
2022-09-12T03:29:07.131Z,59.38
2022-09-12T03:31:34.124Z,59.08
2022-09-12T03:34:00.924Z,60.73
2022-09-12T03:36:28.635Z,59.44
2022-09-12T03:38:55.326Z,59.71
2022-09-12T03:41:22.145Z,59.34
2022-09-12T03:43:49.156Z,60.71
2022-09-12T03:46:15.826Z,60.55
2022-09-12T03:48:42.619Z,60.34
2022-09-12T03:51:10.771Z,59.56
2022-09-12T03:53:37.489Z,60.54
2022-09-12T03:56:08.178Z,59.28
2022-09-12T03:58:36.317Z,59.29
2022-09-12T04:01:13.432Z,59.18
2022-09-12T04:03:44.165Z,59.93
2022-09-12T04:06:11.769Z,59.43
2022-09-12T04:08:38.580Z,59.38
2022-09-12T04:11:06.361Z,60.12
2022-09-12T04:13:33.090Z,59.83
2022-09-12T04:15:59.884Z,59.40
2022-09-12T04:18:27.428Z,59.66
2022-09-12T04:20:54.255Z,59.43
2022-09-12T04:23:20.932Z,61.00
2022-09-12T04:25:57.657Z,60.11
2022-09-12T04:28:25.930Z,59.56
2022-09-12T04:30:52.927Z,59.22
2022-09-12T04:33:19.688Z,59.53
2022-09-12T04:35:46.500Z,59.57
2022-09-12T04:38:13.571Z,59.32
2022-09-12T04:40:40.544Z,59.48
2022-09-12T04:43:10.139Z,59.29
2022-09-12T04:45:39.629Z,58.76
2022-09-12T04:48:06.366Z,59.17
2022-09-12T04:50:33.116Z,59.37
2022-09-12T04:53:00.216Z,59.59
2022-09-12T04:55:27.091Z,59.79
2022-09-12T04:57:53.793Z,59.60
2022-09-12T05:00:20.812Z,59.28
2022-09-12T05:02:47.600Z,59.43
2022-09-12T05:05:14.272Z,58.56
2022-09-12T05:07:41.271Z,58.64
2022-09-12T05:10:08.338Z,57.89
2022-09-12T05:12:35.883Z,58.21
2022-09-12T05:15:04.742Z,58.56
2022-09-12T05:17:31.529Z,58.73
2022-09-12T05:19:58.334Z,59.23
2022-09-12T05:22:25.292Z,59.01
2022-09-12T05:24:52.048Z,58.95
2022-09-12T05:27:18.857Z,58.34
2022-09-12T05:29:46.011Z,58.56
2022-09-12T05:32:12.761Z,58.98
2022-09-12T05:34:40.243Z,59.90
2022-09-12T05:37:07.298Z,58.09
2022-09-12T05:39:33.953Z,58.54
2022-09-12T05:42:00.650Z,57.88
2022-09-12T05:44:28.245Z,58.42
2022-09-12T05:46:55.103Z,58.73
2022-09-12T05:49:21.851Z,58.64
2022-09-12T05:51:49.029Z,58.72
2022-09-12T05:54:18.134Z,58.40
2022-09-12T05:56:45.056Z,59.21
2022-09-12T05:59:13.412Z,58.46
2022-09-12T06:01:40.345Z,58.33
2022-09-12T06:04:07.531Z,57.88
2022-09-12T06:06:38.822Z,58.78
2022-09-12T06:09:05.914Z,58.13
2022-09-12T06:11:33.566Z,58.47
2022-09-12T06:14:00.756Z,58.26
2022-09-12T06:16:28.394Z,58.03
2022-09-12T06:18:56.241Z,57.90
2022-09-12T06:21:23.260Z,59.57
2022-09-12T06:23:50.695Z,58.83
2022-09-12T06:26:21.472Z,57.65
2022-09-12T06:28:48.285Z,57.92
2022-09-12T06:31:16.065Z,58.03
2022-09-12T06:33:44.084Z,58.69
2022-09-12T06:36:12.509Z,58.57
2022-09-12T06:38:39.698Z,58.58
2022-09-12T06:41:07.568Z,59.82
2022-09-12T06:43:34.673Z,60.13
2022-09-12T06:46:02.005Z,58.20
2022-09-12T06:48:29.773Z,57.38
2022-09-12T06:51:01.498Z,57.56
2022-09-12T06:53:28.799Z,58.42
2022-09-12T06:56:06.977Z,58.42
2022-09-12T06:58:34.131Z,56.78
2022-09-12T07:01:04.234Z,56.31
2022-09-12T07:03:31.028Z,55.92
2022-09-12T07:05:57.975Z,55.98
2022-09-12T07:08:25.021Z,55.81
2022-09-12T07:10:51.747Z,53.17
2022-09-12T07:13:18.409Z,51.96
2022-09-12T07:15:45.369Z,53.45
2022-09-12T07:18:12.032Z,52.08
2022-09-12T07:20:39.803Z,51.23
2022-09-12T07:23:06.802Z,52.07
2022-09-12T07:25:33.534Z,52.56
2022-09-12T07:28:00.292Z,52.15
2022-09-12T07:30:27.495Z,52.01
2022-09-12T07:32:54.367Z,51.03
2022-09-12T07:35:21.683Z,49.14
2022-09-12T07:37:48.710Z,47.15
2022-09-12T07:40:15.594Z,47.73
2022-09-12T07:42:42.297Z,45.98
2022-09-12T07:45:09.521Z,46.09
2022-09-12T07:47:36.414Z,47.04
2022-09-12T07:50:03.106Z,47.74
2022-09-12T07:52:30.489Z,46.01
2022-09-12T07:54:57.212Z,44.93
2022-09-12T07:57:24.099Z,44.48
2022-09-12T07:59:53.243Z,44.01
2022-09-12T08:02:20.394Z,45.47
2022-09-12T08:04:48.279Z,43.08
2022-09-12T08:07:15.171Z,43.05
2022-09-12T08:09:41.811Z,44.39
2022-09-12T08:12:08.769Z,44.99
2022-09-12T08:14:35.487Z,45.53
2022-09-12T08:17:02.253Z,42.08
2022-09-12T08:19:29.214Z,40.75
2022-09-12T08:21:55.924Z,41.76
2022-09-12T08:24:22.642Z,40.17
2022-09-12T08:26:49.667Z,43.04
2022-09-12T08:29:16.533Z,41.36
2022-09-12T08:31:43.319Z,42.15
2022-09-12T08:34:10.345Z,41.59
2022-09-12T08:36:37.120Z,41.15
2022-09-12T08:39:05.445Z,42.72
2022-09-12T08:41:35.128Z,41.39
2022-09-12T08:44:20.771Z,41.03
2022-09-12T08:47:06.439Z,40.49
2022-09-12T08:49:45.370Z,42.30
2022-09-12T08:52:13.356Z,41.87
2022-09-12T08:54:40.009Z,38.73
2022-09-12T08:57:09.060Z,36.52
2022-09-12T08:59:38.075Z,39.11
2022-09-12T09:02:05.634Z,39.54
2022-09-12T09:04:32.274Z,38.64
2022-09-12T09:07:06.620Z,39.11
2022-09-12T09:09:42.930Z,39.65
2022-09-12T09:12:28.870Z,38.33
2022-09-12T09:15:21.439Z,41.62
2022-09-12T09:17:50.033Z,40.31
2022-09-12T09:20:26.359Z,37.37
2022-09-12T09:22:55.236Z,40.80
2022-09-12T09:25:23.245Z,39.14
2022-09-12T09:28:01.019Z,36.76
2022-09-12T09:30:28.800Z,37.31
2022-09-12T09:32:56.296Z,38.10
2022-09-12T09:35:34.325Z,37.31
2022-09-12T09:38:22.591Z,38.69
2022-09-12T09:40:59.417Z,38.24
2022-09-12T09:43:29.295Z,38.70
2022-09-12T09:45:56.948Z,38.03
2022-09-12T09:48:23.643Z,37.75
2022-09-12T09:50:50.694Z,37.62
2022-09-12T09:53:30.474Z,38.38
2022-09-12T09:55:57.519Z,40.51
2022-09-12T09:58:31.183Z,39.94
2022-09-12T10:00:58.926Z,40.84
2022-09-12T10:03:28.838Z,40.50
2022-09-12T10:06:00.008Z,38.93
2022-09-12T10:08:30.963Z,39.87
2022-09-12T10:11:27.045Z,39.45
2022-09-12T10:14:00.572Z,39.44
2022-09-12T10:16:34.685Z,38.21
2022-09-12T10:19:02.668Z,38.11
2022-09-12T10:21:36.370Z,38.62
2022-09-12T10:24:11.431Z,39.41
2022-09-12T10:26:38.652Z,41.87
2022-09-12T10:29:14.511Z,41.30
2022-09-12T10:31:49.526Z,41.30
2022-09-12T10:34:46.178Z,40.69
2022-09-12T10:37:17.821Z,39.60
2022-09-12T10:39:50.531Z,45.08
2022-09-12T10:42:21.524Z,42.68
2022-09-12T10:44:54.439Z,41.51
2022-09-12T10:47:22.681Z,41.20
2022-09-12T10:49:51.187Z,42.80
2022-09-12T10:52:23.478Z,42.55
2022-09-12T10:54:51.090Z,44.74
2022-09-12T10:57:36.625Z,44.41
2022-09-12T11:00:14.903Z,45.81
2022-09-12T11:02:41.624Z,43.86
2022-09-12T11:05:14.194Z,43.06
2022-09-12T11:08:10.579Z,43.48
2022-09-12T11:11:16.064Z,44.20
2022-09-12T11:13:48.745Z,46.10
2022-09-12T11:16:15.838Z,43.34
2022-09-12T11:19:04.008Z,44.81
2022-09-12T11:22:00.116Z,43.35
2022-09-12T11:24:35.646Z,45.01
2022-09-12T11:27:22.980Z,44.76
2022-09-12T11:29:54.952Z,44.86
2022-09-12T11:32:25.052Z,44.10
2022-09-12T11:34:58.238Z,45.09
2022-09-12T11:37:46.352Z,42.48
2022-09-12T11:40:33.387Z,42.90
2022-09-12T11:43:07.916Z,44.66
2022-09-12T11:45:36.165Z,45.67
2022-09-12T11:48:04.702Z,46.26
2022-09-12T11:50:31.908Z,46.17
2022-09-12T11:53:04.115Z,46.95
2022-09-12T11:55:33.114Z,45.77
2022-09-12T11:58:00.161Z,45.38
2022-09-12T12:00:31.764Z,45.54
2022-09-12T12:03:06.870Z,46.14
2022-09-12T12:05:44.218Z,45.22
2022-09-12T12:08:11.376Z,44.48
2022-09-12T12:10:39.602Z,44.53
2022-09-12T12:13:13.337Z,42.84
2022-09-12T12:15:41.183Z,43.40
2022-09-12T12:18:08.876Z,43.95
2022-09-12T12:20:35.599Z,42.59
2022-09-12T12:23:02.886Z,41.60
2022-09-12T12:25:41.090Z,42.52
2022-09-12T12:28:08.145Z,40.70
2022-09-12T12:30:59.456Z,41.45
2022-09-12T12:33:27.028Z,43.04
2022-09-12T12:35:59.919Z,44.52
2022-09-12T12:38:29.985Z,41.95
2022-09-12T12:41:15.413Z,42.92
2022-09-12T12:43:43.050Z,42.19
2022-09-12T12:46:11.242Z,42.37
2022-09-12T12:49:04.422Z,44.97
2022-09-12T12:51:37.693Z,42.48
2022-09-12T12:54:07.784Z,43.47
2022-09-12T12:56:42.031Z,42.09
2022-09-12T12:59:13.978Z,45.62
2022-09-12T13:01:45.142Z,41.03
2022-09-12T13:04:13.424Z,41.33
2022-09-12T13:06:41.315Z,42.19
2022-09-12T13:09:14.617Z,44.13
2022-09-12T13:11:41.358Z,41.66
2022-09-12T13:14:28.647Z,41.24
2022-09-12T13:16:56.762Z,44.31
2022-09-12T13:19:34.126Z,40.36
2022-09-12T13:22:05.522Z,39.97
2022-09-12T13:24:33.115Z,40.47
2022-09-12T13:26:59.838Z,39.78
2022-09-12T13:29:27.819Z,39.09
2022-09-12T13:31:59.337Z,38.32
2022-09-12T13:34:27.854Z,36.35
2022-09-12T13:37:04.965Z,36.84
2022-09-12T13:40:07.511Z,36.54
2022-09-12T13:42:43.536Z,38.12
2022-09-12T13:45:28.655Z,37.17
2022-09-12T13:47:59.971Z,36.66
2022-09-12T13:50:27.821Z,36.88
2022-09-12T13:52:56.363Z,36.09
2022-09-12T13:55:25.915Z,37.19
2022-09-12T13:58:15.397Z,35.94
2022-09-12T14:00:42.600Z,35.79
2022-09-12T14:03:47.893Z,35.30
2022-09-12T14:06:16.358Z,35.51
2022-09-12T14:08:43.505Z,36.73
2022-09-12T14:11:11.039Z,35.81
2022-09-12T14:13:38.997Z,37.31
2022-09-12T14:16:09.901Z,35.82
2022-09-12T14:18:39.991Z,36.49
2022-09-12T14:21:11.279Z,36.85
2022-09-12T14:23:41.739Z,35.48
2022-09-12T14:26:11.489Z,35.39
2022-09-12T14:28:42.345Z,34.90
2022-09-12T14:31:12.403Z,36.28
2022-09-12T14:33:48.636Z,35.11
2022-09-12T14:36:24.703Z,34.81
2022-09-12T14:38:56.131Z,35.26
2022-09-12T14:41:27.712Z,34.99
2022-09-12T14:43:55.430Z,34.56
2022-09-12T14:46:23.398Z,34.91
2022-09-12T14:48:54.300Z,34.65
2022-09-12T14:51:22.335Z,36.03
2022-09-12T14:53:49.908Z,36.30
2022-09-12T14:56:17.042Z,36.37
2022-09-12T14:58:43.698Z,36.50
2022-09-12T15:01:10.422Z,34.84
2022-09-12T15:03:49.351Z,34.82
2022-09-12T15:06:33.026Z,34.63
2022-09-12T15:09:00.869Z,34.98
2022-09-12T15:11:27.912Z,34.41
2022-09-12T15:13:54.768Z,35.17
2022-09-12T15:16:22.730Z,35.26
2022-09-12T15:18:49.453Z,35.60
2022-09-12T15:21:17.265Z,35.47
2022-09-12T15:23:46.376Z,34.81
2022-09-12T15:26:14.209Z,34.63
2022-09-12T15:28:40.990Z,35.21
2022-09-12T15:31:21.209Z,35.79
2022-09-12T15:33:48.074Z,36.29
2022-09-12T15:36:16.666Z,36.16
2022-09-12T15:38:43.696Z,35.61
2022-09-12T15:41:11.354Z,34.40
2022-09-12T15:43:38.406Z,33.58
2022-09-12T15:46:06.837Z,33.13
2022-09-12T15:48:35.891Z,33.80
2022-09-12T15:51:04.829Z,33.75
2022-09-12T15:53:31.769Z,33.59
2022-09-12T15:55:58.487Z,34.11
2022-09-12T15:58:25.450Z,34.50
2022-09-12T16:00:52.125Z,34.44
2022-09-12T16:03:23.345Z,33.89
2022-09-12T16:05:50.563Z,33.33
2022-09-12T16:08:17.288Z,33.68
2022-09-12T16:10:44.361Z,34.42
2022-09-12T16:13:11.088Z,35.03
2022-09-12T16:15:37.969Z,36.22
2022-09-12T16:18:04.960Z,34.79
2022-09-12T16:20:31.644Z,36.43
2022-09-12T16:22:58.358Z,34.80
2022-09-12T16:25:25.657Z,35.91
2022-09-12T16:27:52.540Z,34.39
2022-09-12T16:30:19.292Z,34.43
2022-09-12T16:32:46.661Z,35.40
2022-09-12T16:35:13.376Z,34.61
2022-09-12T16:37:40.342Z,36.64
2022-09-12T16:40:07.711Z,35.14
2022-09-12T16:42:35.204Z,36.62
2022-09-12T16:45:02.594Z,35.77
2022-09-12T16:47:32.241Z,35.79
2022-09-12T16:49:59.631Z,35.60
2022-09-12T16:52:26.360Z,35.73
2022-09-12T16:54:53.529Z,36.59
2022-09-12T16:57:20.454Z,36.31
2022-09-12T16:59:47.187Z,36.58
2022-09-12T17:02:14.338Z,37.68
2022-09-12T17:04:41.243Z,37.42
2022-09-12T17:07:08.147Z,38.06
2022-09-12T17:09:35.166Z,38.26
2022-09-12T17:12:02.066Z,40.29
2022-09-12T17:14:28.758Z,39.85
2022-09-12T17:16:55.774Z,40.65
2022-09-12T17:19:26.369Z,41.00
2022-09-12T17:21:53.172Z,40.43
2022-09-12T17:24:20.247Z,41.68
2022-09-12T17:26:47.113Z,42.00
2022-09-12T17:29:13.993Z,43.11
2022-09-12T17:31:41.480Z,42.16
2022-09-12T17:34:08.539Z,40.98
2022-09-12T17:36:35.512Z,41.65
2022-09-12T17:39:03.807Z,40.05
2022-09-12T17:41:33.742Z,40.67
2022-09-12T17:44:01.377Z,41.02
2022-09-12T17:46:33.524Z,40.40
2022-09-12T17:49:01.197Z,40.78
2022-09-12T17:51:30.783Z,40.67
2022-09-12T17:54:01.765Z,41.13
2022-09-12T17:56:31.019Z,40.19
2022-09-12T17:58:58.546Z,40.17
2022-09-12T18:01:44.166Z,40.31
2022-09-12T18:04:11.582Z,39.54
2022-09-12T18:06:38.445Z,39.65
2022-09-12T18:09:06.295Z,40.74
2022-09-12T18:11:33.854Z,39.95
2022-09-12T18:14:01.023Z,40.45
2022-09-12T18:16:33.076Z,40.03
2022-09-12T18:19:01.754Z,40.24
2022-09-12T18:21:29.999Z,41.13
2022-09-12T18:23:59.293Z,41.13
2022-09-12T18:26:27.168Z,40.18
2022-09-12T18:28:55.405Z,41.15
2022-09-12T18:31:24.224Z,41.25
2022-09-12T18:33:51.894Z,41.73
2022-09-12T18:36:19.909Z,42.72
2022-09-12T18:38:48.233Z,42.48
2022-09-12T18:41:16.889Z,42.81
2022-09-12T18:43:44.650Z,43.11
2022-09-12T18:46:15.659Z,43.59
2022-09-12T18:48:43.331Z,43.72
2022-09-12T18:51:12.515Z,44.77
2022-09-12T18:53:39.579Z,44.77
2022-09-12T18:56:10.988Z,44.45
2022-09-12T18:58:38.941Z,44.74
2022-09-12T19:01:16.858Z,45.61
2022-09-12T19:03:44.558Z,44.56
2022-09-12T19:06:17.816Z,45.14
2022-09-12T19:08:46.088Z,45.53
2022-09-12T19:11:13.582Z,45.33
2022-09-12T19:13:41.206Z,45.74
2022-09-12T19:16:13.755Z,46.30
2022-09-12T19:18:44.089Z,46.46
2022-09-12T19:21:15.731Z,46.45
2022-09-12T19:23:43.211Z,46.82
2022-09-12T19:26:11.300Z,46.23
2022-09-12T19:28:38.370Z,46.15
2022-09-12T19:31:06.665Z,46.06
2022-09-12T19:33:34.099Z,46.02
2022-09-12T19:36:03.046Z,46.75
2022-09-12T19:38:30.401Z,46.72
2022-09-12T19:40:58.184Z,47.23
2022-09-12T19:43:25.610Z,47.67
2022-09-12T19:45:53.125Z,48.02
2022-09-12T19:48:20.387Z,48.00
2022-09-12T19:50:49.663Z,47.92
2022-09-12T19:53:18.723Z,48.76
2022-09-12T19:55:46.944Z,47.80
2022-09-12T19:58:14.188Z,48.98
2022-09-12T20:00:48.574Z,49.57
2022-09-12T20:03:15.902Z,48.60
2022-09-12T20:05:46.705Z,49.14
2022-09-12T20:08:13.537Z,50.23
2022-09-12T20:10:41.981Z,49.16
2022-09-12T20:13:08.921Z,49.14
2022-09-12T20:15:35.916Z,49.50
2022-09-12T20:18:03.272Z,50.18
2022-09-12T20:20:30.961Z,50.53
2022-09-12T20:22:57.847Z,50.14
2022-09-12T20:25:25.200Z,49.99
2022-09-12T20:27:54.937Z,51.17
2022-09-12T20:30:24.147Z,51.72
2022-09-12T20:32:50.920Z,51.05
2022-09-12T20:35:18.673Z,50.34
2022-09-12T20:37:45.884Z,50.01
2022-09-12T20:40:12.738Z,50.75
2022-09-12T20:42:39.479Z,51.63
2022-09-12T20:45:07.916Z,51.25
2022-09-12T20:47:34.663Z,51.01
2022-09-12T20:50:01.397Z,51.07
2022-09-12T20:52:28.326Z,51.45
2022-09-12T20:54:55.019Z,51.34
2022-09-12T20:57:21.842Z,51.71
2022-09-12T20:59:48.868Z,51.32
2022-09-12T21:02:15.987Z,52.54
2022-09-12T21:04:42.790Z,52.41
2022-09-12T21:07:09.852Z,52.30
2022-09-12T21:09:36.516Z,52.82
2022-09-12T21:12:03.305Z,52.55
2022-09-12T21:14:30.254Z,52.12
2022-09-12T21:16:57.026Z,52.44
2022-09-12T21:19:23.753Z,53.17
2022-09-12T21:21:50.791Z,52.64
2022-09-12T21:24:17.581Z,53.17
2022-09-12T21:26:44.224Z,52.84
2022-09-12T21:29:11.740Z,52.41
2022-09-12T21:31:38.488Z,52.06
2022-09-12T21:34:05.183Z,52.23
2022-09-12T21:36:32.182Z,52.59
2022-09-12T21:38:59.296Z,52.87
2022-09-12T21:41:26.039Z,52.30
2022-09-12T21:43:53.219Z,52.52
2022-09-12T21:46:20.063Z,52.43
2022-09-12T21:48:46.893Z,52.23
2022-09-12T21:51:13.831Z,52.45
2022-09-12T21:53:40.512Z,52.10
2022-09-12T21:56:07.925Z,52.70
2022-09-12T21:58:35.425Z,52.47
2022-09-12T22:01:02.647Z,52.28
2022-09-12T22:03:29.828Z,52.42
2022-09-12T22:05:57.363Z,52.22
2022-09-12T22:08:24.097Z,51.42
2022-09-12T22:10:51.102Z,51.42
2022-09-12T22:13:17.825Z,51.99
2022-09-12T22:15:44.754Z,51.77
2022-09-12T22:18:11.761Z,52.21
2022-09-12T22:20:38.433Z,52.25
2022-09-12T22:23:24.992Z,52.00
2022-09-12T22:25:55.074Z,51.88
2022-09-12T22:28:22.207Z,52.82
2022-09-12T22:30:48.903Z,53.15
2022-09-12T22:33:15.890Z,52.46
2022-09-12T22:35:42.549Z,52.52
2022-09-12T22:38:09.285Z,52.61
2022-09-12T22:40:36.351Z,53.03
2022-09-12T22:43:03.006Z,53.34
2022-09-12T22:45:29.672Z,53.02
2022-09-12T22:48:00.535Z,53.09
2022-09-12T22:50:27.914Z,52.69
2022-09-12T22:52:54.732Z,53.21
2022-09-12T22:55:21.729Z,52.89
2022-09-12T22:57:48.417Z,53.17
2022-09-12T23:00:15.184Z,52.76
2022-09-12T23:02:42.756Z,53.05
2022-09-12T23:05:09.516Z,53.03
2022-09-12T23:07:36.232Z,54.09
2022-09-12T23:10:03.597Z,53.87
2022-09-12T23:12:31.871Z,54.13
2022-09-12T23:14:58.577Z,54.02
2022-09-12T23:17:25.587Z,53.45
2022-09-12T23:19:52.612Z,53.75
2022-09-12T23:22:19.287Z,54.85
2022-09-12T23:24:46.314Z,54.75
2022-09-12T23:27:12.961Z,54.01
2022-09-12T23:29:39.790Z,53.97
2022-09-12T23:32:06.862Z,54.17
2022-09-12T23:34:33.617Z,53.64
2022-09-12T23:37:00.283Z,53.87
2022-09-12T23:39:27.244Z,53.48
2022-09-12T23:41:53.958Z,52.79
2022-09-12T23:44:20.623Z,54.08
2022-09-12T23:46:47.687Z,53.28
2022-09-12T23:49:15.333Z,53.37
2022-09-12T23:51:42.017Z,54.39
2022-09-12T23:54:09.004Z,53.86
2022-09-12T23:56:35.714Z,54.44
2022-09-12T23:59:02.718Z,55.16
